Time,TemperatureF,DewpointF,PressureIn,WindDirection,WindDirectionDegrees,WindSpeedMPH,WindSpeedGustMPH,Humidity,HourlyPrecipIn,Conditions,Clouds,dailyrainin,SoftwareType,DateUTC
2013-01-16 00:00:00,62.9,61.8,30.02,SW,227,0.0,0.0,96,0.00,,---,0.00,VWS V14.00,2013-01-16 05:00:00,
2013-01-16 00:01:00,62.9,61.8,30.03,SW,227,0.0,0.0,96,0.00,,---,0.00,VWS V14.00,2013-01-16 05:01:00,
2013-01-16 00:02:00,62.8,61.7,30.03,SW,227,0.0,0.0,96,0.00,,---,0.00,VWS V14.00,2013-01-16 05:02:00,
2013-01-16 00:07:00,62.7,61.5,30.03,SW,227,0.0,0.0,96,0.00,,---,0.00,VWS V14.00,2013-01-16 05:07:00,
2013-01-16 00:12:00,62.6,61.5,30.03,SW,227,0.0,0.0,96,0.00,,---,0.00,VWS V14.00,2013-01-16 05:12:00,
2013-01-16 00:17:00,62.5,61.3,30.04,SW,227,0.0,0.0,96,0.00,,---,0.00,VWS V14.00,2013-01-16 05:17:00,
2013-01-16 00:22:00,62.5,61.3,30.04,SW,227,0.0,0.0,96,0.00,,---,0.00,VWS V14.00,2013-01-16 05:22:00,
2013-01-16 00:27:00,62.5,61.3,30.04,SW,227,0.0,0.0,96,0.00,,---,0.00,VWS V14.00,2013-01-16 05:27:00,
2013-01-16 00:32:00,62.4,61.2,30.04,SW,227,0.0,0.0,96,0.00,,---,0.00,VWS V14.00,2013-01-16 05:32:00,
2013-01-16 00:37:00,62.4,61.2,30.04,SW,227,0.0,0.0,96,0.00,,---,0.00,VWS V14.00,2013-01-16 05:37:00,
2013-01-16 00:42:00,62.3,61.2,30.04,SW,227,0.0,0.0,96,0.00,,---,0.00,VWS V14.00,2013-01-16 05:42:00,
2013-01-16 00:46:00,62.2,61.0,30.03,SW,227,0.0,0.0,96,0.00,,---,0.00,VWS V14.00,2013-01-16 05:46:00,
2013-01-16 00:51:00,62.0,60.8,30.04,SW,227,0.0,0.0,96,0.00,,---,0.00,VWS V14.00,2013-01-16 05:51:00,
2013-01-16 00:56:00,62.0,60.8,30.03,SW,227,0.0,0.0,96,0.00,,---,0.00,VWS V14.00,2013-01-16 05:56:00,
2013-01-16 01:01:00,61.8,60.7,30.03,SW,227,0.0,0.0,96,0.00,,---,0.00,VWS V14.00,2013-01-16 06:01:00,
2013-01-16 01:06:00,61.8,60.7,30.04,SW,227,0.0,0.0,96,0.00,,---,0.00,VWS V14.00,2013-01-16 06:06:00,
2013-01-16 01:11:00,61.6,60.5,30.04,SW,227,0.0,0.0,96,0.00,,---,0.00,VWS V14.00,2013-01-16 06:11:00,
2013-01-16 01:16:00,61.6,60.5,30.04,SW,227,0.0,0.0,96,0.00,,---,0.00,VWS V14.00,2013-01-16 06:16:00,
2013-01-16 01:21:00,61.4,60.2,30.04,SW,227,0.0,0.0,96,0.00,,---,0.00,VWS V14.00,2013-01-16 06:21:00,
2013-01-16 01:26:00,61.4,60.2,30.04,SW,227,0.0,0.0,96,0.00,,---,0.00,VWS V14.00,2013-01-16 06:26:00,
2013-01-16 01:31:00,61.3,60.2,30.04,SW,227,0.0,0.0,96,0.00,,---,0.00,VWS V14.00,2013-01-16 06:31:00,
2013-01-16 01:37:00,61.2,60.0,30.04,SW,227,0.0,0.0,96,0.00,,---,0.00,VWS V14.00,2013-01-16 06:37:00,
2013-01-16 01:42:00,61.1,60.0,30.04,SW,227,0.0,0.0,96,0.00,,---,0.00,VWS V14.00,2013-01-16 06:42:00,
2013-01-16 01:47:00,61.0,59.9,30.04,SW,227,0.0,0.0,96,0.00,,---,0.00,VWS V14.00,2013-01-16 06:47:00,
2013-01-16 01:52:00,60.9,59.8,30.03,SW,227,0.0,0.0,96,0.00,,---,0.00,VWS V14.00,2013-01-16 06:52:00,
2013-01-16 01:57:00,60.8,59.7,30.03,SW,227,0.0,0.0,96,0.00,,---,0.00,VWS V14.00,2013-01-16 06:57:00,
2013-01-16 02:02:00,60.6,59.5,30.03,SW,227,0.0,0.0,96,0.00,,---,0.00,VWS V14.00,2013-01-16 07:02:00,
2013-01-16 02:07:00,60.5,59.4,30.03,SW,227,0.0,0.0,96,0.00,,---,0.00,VWS V14.00,2013-01-16 07:07:00,
2013-01-16 02:12:00,60.5,59.4,30.03,SW,227,0.0,0.0,96,0.00,,---,0.00,VWS V14.00,2013-01-16 07:12:00,
2013-01-16 02:16:00,60.4,59.3,30.02,SW,227,0.0,0.0,96,0.00,,---,0.00,VWS V14.00,2013-01-16 07:16:00,
2013-01-16 02:21:00,60.3,59.2,30.02,SW,227,0.0,0.0,96,0.00,,---,0.00,VWS V14.00,2013-01-16 07:21:00,
2013-01-16 02:26:00,60.2,59.1,30.02,SW,227,0.0,0.0,96,0.00,,---,0.00,VWS V14.00,2013-01-16 07:26:00,
2013-01-16 02:31:00,60.2,59.1,30.02,SW,227,0.0,0.0,96,0.00,,---,0.00,VWS V14.00,2013-01-16 07:31:00,
2013-01-16 02:37:00,60.1,59.0,30.02,SW,227,0.0,0.0,96,0.00,,---,0.00,VWS V14.00,2013-01-16 07:37:00,
2013-01-16 02:42:00,60.0,58.9,30.02,SW,227,0.0,0.0,96,0.00,,---,0.00,VWS V14.00,2013-01-16 07:42:00,
2013-01-16 02:47:00,60.0,58.9,30.02,SW,227,0.0,0.0,96,0.00,,---,0.00,VWS V14.00,2013-01-16 07:47:00,
2013-01-16 02:52:00,60.0,58.9,30.02,SW,227,0.0,0.0,96,0.00,,---,0.00,VWS V14.00,2013-01-16 07:52:00,
2013-01-16 02:57:00,59.9,58.8,30.02,SW,227,0.0,0.0,96,0.00,,---,0.00,VWS V14.00,2013-01-16 07:57:00,
2013-01-16 03:02:00,59.9,58.8,30.02,SW,227,0.0,0.0,96,0.00,,---,0.00,VWS V14.00,2013-01-16 08:02:00,
2013-01-16 03:07:00,59.8,58.7,30.02,SW,227,0.0,0.0,96,0.00,,---,0.00,VWS V14.00,2013-01-16 08:07:00,
2013-01-16 03:12:00,59.8,58.7,30.02,SW,227,0.0,0.0,96,0.00,,---,0.00,VWS V14.00,2013-01-16 08:12:00,
2013-01-16 03:17:00,59.8,58.7,30.02,SW,227,0.0,0.0,96,0.00,,---,0.00,VWS V14.00,2013-01-16 08:17:00,
2013-01-16 03:22:00,59.8,58.7,30.02,SW,227,0.0,0.0,96,0.00,,---,0.00,VWS V14.00,2013-01-16 08:22:00,
2013-01-16 03:27:00,59.9,59.0,30.02,SW,227,0.0,0.0,97,0.00,,---,0.00,VWS V14.00,2013-01-16 08:27:00,
2013-01-16 03:32:00,60.2,59.3,30.02,SW,227,0.0,0.0,97,0.00,,---,0.00,VWS V14.00,2013-01-16 08:32:00,
2013-01-16 03:37:00,60.5,59.7,30.02,SW,227,0.0,0.0,97,0.00,,---,0.00,VWS V14.00,2013-01-16 08:37:00,
2013-01-16 03:42:00,60.9,60.3,30.02,SW,227,0.0,0.0,98,0.00,,---,0.00,VWS V14.00,2013-01-16 08:42:00,
2013-01-16 03:47:00,61.5,60.9,30.02,SW,227,0.0,0.0,98,0.00,,---,0.00,VWS V14.00,2013-01-16 08:47:00,
2013-01-16 03:52:00,62.2,61.6,30.02,SW,227,0.0,0.0,98,0.00,,---,0.00,VWS V14.00,2013-01-16 08:52:00,
2013-01-16 03:57:00,62.9,62.3,30.02,SW,227,0.0,0.0,98,0.00,,---,0.00,VWS V14.00,2013-01-16 08:57:00,
2013-01-16 04:02:00,63.6,63.0,30.02,West,266,0.0,1.0,98,0.00,,---,0.00,VWS V14.00,2013-01-16 09:02:00,
2013-01-16 04:07:00,64.2,63.6,30.02,West,275,0.0,2.0,98,0.00,,---,0.00,VWS V14.00,2013-01-16 09:07:00,
2013-01-16 04:11:00,64.6,64.0,30.02,NNW,333,0.0,2.0,98,0.00,,---,0.00,VWS V14.00,2013-01-16 09:11:00,
2013-01-16 04:16:00,64.8,64.2,30.02,NNW,333,0.0,1.0,98,0.00,,---,0.00,VWS V14.00,2013-01-16 09:16:00,
2013-01-16 04:21:00,64.9,64.3,30.02,NNW,333,0.0,0.0,98,0.00,,---,0.00,VWS V14.00,2013-01-16 09:21:00,
2013-01-16 04:26:00,65.1,64.5,30.02,NW,307,0.0,0.0,98,0.00,,---,0.00,VWS V14.00,2013-01-16 09:26:00,
2013-01-16 04:31:00,65.1,64.5,30.01,NW,307,0.0,0.0,98,0.00,,---,0.00,VWS V14.00,2013-01-16 09:31:00,
2013-01-16 04:36:00,65.1,64.5,30.01,NW,307,0.0,0.0,98,0.00,,---,0.00,VWS V14.00,2013-01-16 09:36:00,
2013-01-16 04:41:00,65.1,64.5,30.01,NW,307,0.0,0.0,98,0.00,,---,0.00,VWS V14.00,2013-01-16 09:41:00,
2013-01-16 04:46:00,65.1,64.5,30.01,NW,307,0.0,0.0,98,0.00,,---,0.00,VWS V14.00,2013-01-16 09:46:00,
2013-01-16 04:51:00,65.0,64.4,30.01,SSW,213,0.0,0.0,98,0.00,,---,0.00,VWS V14.00,2013-01-16 09:51:00,
2013-01-16 04:56:00,65.0,64.4,30.01,SSW,213,0.0,0.0,98,0.00,,---,0.00,VWS V14.00,2013-01-16 09:56:00,
2013-01-16 05:01:00,64.9,64.3,30.01,NNW,331,0.0,0.0,98,0.00,,---,0.00,VWS V14.00,2013-01-16 10:01:00,
2013-01-16 05:06:00,64.8,64.2,30.01,NNW,331,0.0,0.0,98,0.00,,---,0.00,VWS V14.00,2013-01-16 10:06:00,
2013-01-16 05:11:00,64.7,64.1,30.01,NNW,340,0.0,2.0,98,0.00,,---,0.00,VWS V14.00,2013-01-16 10:11:00,
2013-01-16 05:16:00,64.5,63.9,30.01,North,351,0.0,0.0,98,0.00,,---,0.00,VWS V14.00,2013-01-16 10:16:00,
2013-01-16 05:21:00,64.5,63.9,30.01,North,351,0.0,0.0,98,0.00,,---,0.00,VWS V14.00,2013-01-16 10:21:00,
2013-01-16 05:26:00,64.4,63.8,30.01,SSW,202,1.0,2.0,98,0.00,,---,0.00,VWS V14.00,2013-01-16 10:26:00,
2013-01-16 05:31:00,64.3,63.7,30.01,NNW,340,4.0,4.0,98,0.00,,---,0.00,VWS V14.00,2013-01-16 10:31:00,
2013-01-16 05:36:00,64.2,63.6,30.01,NW,322,0.0,0.0,98,0.00,,---,0.00,VWS V14.00,2013-01-16 10:36:00,
2013-01-16 05:41:00,64.1,63.5,30.01,WSW,246,0.0,0.0,98,0.00,,---,0.00,VWS V14.00,2013-01-16 10:41:00,
2013-01-16 05:46:00,64.1,63.5,30.01,NW,309,0.0,0.0,98,0.00,,---,0.00,VWS V14.00,2013-01-16 10:46:00,
2013-01-16 05:51:00,64.1,63.5,30.01,NW,313,0.0,0.0,98,0.00,,---,0.00,VWS V14.00,2013-01-16 10:51:00,
2013-01-16 05:56:00,64.1,63.5,30.01,NW,312,0.0,1.0,98,0.00,,---,0.00,VWS V14.00,2013-01-16 10:56:00,
2013-01-16 06:01:00,64.1,63.5,30.01,NW,313,0.0,0.0,98,0.00,,---,0.00,VWS V14.00,2013-01-16 11:01:00,
2013-01-16 06:06:00,64.2,63.6,30.01,NW,312,0.0,2.0,98,0.00,,---,0.00,VWS V14.00,2013-01-16 11:06:00,
2013-01-16 06:11:00,64.2,63.6,30.01,SW,229,0.0,0.0,98,0.00,,---,0.00,VWS V14.00,2013-01-16 11:11:00,
2013-01-16 06:16:00,64.2,63.6,30.01,SSW,208,0.0,0.0,98,0.00,,---,0.00,VWS V14.00,2013-01-16 11:16:00,
2013-01-16 06:21:00,64.2,63.6,30.01,NW,316,0.0,0.0,98,0.00,,---,0.00,VWS V14.00,2013-01-16 11:21:00,
2013-01-16 06:26:00,64.1,63.5,30.01,SW,223,0.0,0.0,98,0.00,,---,0.00,VWS V14.00,2013-01-16 11:26:00,
2013-01-16 06:31:00,64.1,63.5,30.01,SW,232,0.0,0.0,98,0.00,,---,0.00,VWS V14.00,2013-01-16 11:31:00,
2013-01-16 06:36:00,64.0,63.4,30.01,West,279,0.0,0.0,98,0.01,,---,0.01,VWS V14.00,2013-01-16 11:36:00,
2013-01-16 06:41:00,64.0,63.4,30.01,SW,220,1.0,1.0,98,0.01,,---,0.01,VWS V14.00,2013-01-16 11:41:00,
2013-01-16 06:46:00,63.9,63.3,30.01,North,349,0.0,4.0,98,0.01,,---,0.01,VWS V14.00,2013-01-16 11:46:00,
2013-01-16 06:51:00,63.9,63.3,30.02,North,349,0.0,0.0,98,0.01,,---,0.01,VWS V14.00,2013-01-16 11:51:00,
2013-01-16 06:56:00,63.8,63.2,30.02,SW,236,1.0,2.0,98,0.01,,---,0.01,VWS V14.00,2013-01-16 11:56:00,
2013-01-16 07:01:00,63.8,63.2,30.02,NNE,13,0.0,0.0,98,0.01,,---,0.01,VWS V14.00,2013-01-16 12:01:00,
2013-01-16 07:06:00,63.8,63.2,30.02,NNW,334,0.0,4.0,98,0.01,,---,0.01,VWS V14.00,2013-01-16 12:06:00,
2013-01-16 07:11:00,63.8,63.2,30.03,NNW,345,0.0,1.0,98,0.01,,---,0.01,VWS V14.00,2013-01-16 12:11:00,
2013-01-16 07:16:00,63.8,63.2,30.03,SSW,209,0.0,1.0,98,0.01,,---,0.01,VWS V14.00,2013-01-16 12:16:00,
2013-01-16 07:21:00,63.7,63.1,30.03,SSW,212,0.0,0.0,98,0.01,,---,0.01,VWS V14.00,2013-01-16 12:21:00,
2013-01-16 07:26:00,63.7,63.1,30.03,ENE,67,0.0,0.0,98,0.01,,---,0.01,VWS V14.00,2013-01-16 12:26:00,
2013-01-16 07:31:00,63.6,63.0,30.03,WSW,239,1.0,1.0,98,0.01,,---,0.01,VWS V14.00,2013-01-16 12:31:00,
2013-01-16 07:36:00,63.6,63.0,30.03,NW,317,1.0,1.0,98,0.00,,---,0.01,VWS V14.00,2013-01-16 12:36:00,
2013-01-16 07:41:00,63.6,63.0,30.03,NW,318,0.0,1.0,98,0.00,,---,0.01,VWS V14.00,2013-01-16 12:41:00,
2013-01-16 07:46:00,63.6,63.0,30.03,NW,318,0.0,1.0,98,0.00,,---,0.01,VWS V14.00,2013-01-16 12:46:00,
2013-01-16 07:51:00,63.6,63.0,30.03,NW,318,0.0,1.0,98,0.00,,---,0.01,VWS V14.00,2013-01-16 12:51:00,
2013-01-16 07:56:00,63.7,63.1,30.03,NW,318,0.0,0.0,98,0.00,,---,0.01,VWS V14.00,2013-01-16 12:56:00,
2013-01-16 08:01:00,63.8,63.2,30.03,SW,217,0.0,1.0,98,0.00,,---,0.01,VWS V14.00,2013-01-16 13:01:00,
2013-01-16 08:06:00,63.9,63.3,30.03,SSW,213,0.0,1.0,98,0.00,,---,0.01,VWS V14.00,2013-01-16 13:06:00,
2013-01-16 08:11:00,64.0,63.4,30.04,SSE,166,0.0,0.0,98,0.00,,---,0.01,VWS V14.00,2013-01-16 13:11:00,
2013-01-16 08:16:00,64.1,63.5,30.04,South,173,2.0,2.0,98,0.00,,---,0.01,VWS V14.00,2013-01-16 13:16:00,
2013-01-16 08:21:00,64.1,63.5,30.04,NNE,28,0.0,1.0,98,0.00,,---,0.01,VWS V14.00,2013-01-16 13:21:00,
2013-01-16 08:26:00,64.2,63.6,30.04,NNE,29,0.0,2.0,98,0.00,,---,0.01,VWS V14.00,2013-01-16 13:26:00,
2013-01-16 08:31:00,64.3,63.7,30.04,NNE,29,0.0,0.0,98,0.00,,---,0.01,VWS V14.00,2013-01-16 13:31:00,
2013-01-16 08:36:00,64.4,63.8,30.04,NNE,17,0.0,1.0,98,0.00,,---,0.01,VWS V14.00,2013-01-16 13:36:00,
2013-01-16 08:41:00,64.5,63.9,30.04,SSW,203,0.0,0.0,98,0.00,,---,0.01,VWS V14.00,2013-01-16 13:41:00,
2013-01-16 08:46:00,64.7,64.1,30.04,SW,214,0.0,2.0,98,0.00,,---,0.01,VWS V14.00,2013-01-16 13:46:00,
2013-01-16 08:51:00,64.8,64.2,30.04,SW,230,1.0,5.0,98,0.00,,---,0.01,VWS V14.00,2013-01-16 13:51:00,
2013-01-16 08:56:00,65.0,64.4,30.05,NW,317,0.0,1.0,98,0.00,,---,0.01,VWS V14.00,2013-01-16 13:56:00,
2013-01-16 09:01:00,65.2,64.6,30.05,NW,317,0.0,0.0,98,0.00,,---,0.01,VWS V14.00,2013-01-16 14:01:00,
2013-01-16 09:06:00,65.3,64.7,30.05,SW,225,2.0,2.0,98,0.00,,---,0.01,VWS V14.00,2013-01-16 14:06:00,
2013-01-16 09:11:00,65.5,64.9,30.05,SSW,204,0.0,2.0,98,0.00,,---,0.01,VWS V14.00,2013-01-16 14:11:00,
2013-01-16 09:16:00,65.7,65.1,30.05,NW,305,1.0,4.0,98,0.00,,---,0.01,VWS V14.00,2013-01-16 14:16:00,
2013-01-16 09:21:00,65.9,65.3,30.05,NW,304,2.0,2.0,98,0.00,,---,0.01,VWS V14.00,2013-01-16 14:21:00,
2013-01-16 09:26:00,66.0,65.4,30.05,NW,304,0.0,1.0,98,0.00,,---,0.01,VWS V14.00,2013-01-16 14:26:00,
2013-01-16 09:31:00,66.2,65.3,30.05,NNE,26,1.0,3.0,97,0.00,,---,0.01,VWS V14.00,2013-01-16 14:31:00,
2013-01-16 09:36:00,66.4,65.5,30.05,West,269,0.0,1.0,97,0.00,,---,0.01,VWS V14.00,2013-01-16 14:36:00,
2013-01-16 09:41:00,66.6,65.7,30.06,WNW,290,0.0,2.0,97,0.00,,---,0.01,VWS V14.00,2013-01-16 14:41:00,
2013-01-16 09:46:00,66.8,65.9,30.06,NNW,340,0.0,2.0,97,0.00,,---,0.01,VWS V14.00,2013-01-16 14:46:00,
2013-01-16 09:51:00,67.0,65.8,30.06,NW,306,0.0,1.0,96,0.00,,---,0.01,VWS V14.00,2013-01-16 14:51:00,
2013-01-16 09:56:00,67.2,65.7,30.06,SSE,167,4.0,4.0,95,0.00,,---,0.01,VWS V14.00,2013-01-16 14:56:00,
2013-01-16 10:01:00,67.5,65.7,30.06,West,271,0.0,1.0,94,0.00,,---,0.01,VWS V14.00,2013-01-16 15:01:00,
2013-01-16 10:06:00,67.8,65.7,30.06,West,263,0.0,1.0,93,0.00,,---,0.01,VWS V14.00,2013-01-16 15:06:00,
2013-01-16 10:11:00,68.1,65.7,30.06,SSW,206,1.0,2.0,92,0.00,,---,0.01,VWS V14.00,2013-01-16 15:11:00,
2013-01-16 10:16:00,68.4,65.7,30.05,WSW,238,2.0,4.0,91,0.00,,---,0.01,VWS V14.00,2013-01-16 15:16:00,
2013-01-16 10:21:00,68.8,65.4,30.05,NNE,27,1.0,1.0,89,0.00,,---,0.01,VWS V14.00,2013-01-16 15:21:00,
2013-01-16 10:26:00,69.2,65.5,30.05,South,185,0.0,0.0,88,0.00,,---,0.01,VWS V14.00,2013-01-16 15:26:00,
2013-01-16 10:31:00,69.6,65.6,30.05,WSW,246,0.0,1.0,87,0.00,,---,0.01,VWS V14.00,2013-01-16 15:31:00,
2013-01-16 10:36:00,69.8,65.4,30.04,NW,323,0.0,1.0,86,0.00,,---,0.01,VWS V14.00,2013-01-16 15:36:00,
2013-01-16 10:41:00,70.1,65.4,30.04,WNW,288,0.0,0.0,85,0.00,,---,0.01,VWS V14.00,2013-01-16 15:41:00,
2013-01-16 10:46:00,70.3,65.2,30.04,NW,304,0.0,1.0,84,0.00,,---,0.01,VWS V14.00,2013-01-16 15:46:00,
2013-01-16 10:51:00,70.4,65.0,30.04,North,355,0.0,2.0,83,0.00,,---,0.01,VWS V14.00,2013-01-16 15:51:00,
2013-01-16 10:56:00,70.6,64.5,30.04,SSW,200,0.0,4.0,81,0.00,,---,0.01,VWS V14.00,2013-01-16 15:56:00,
2013-01-16 11:01:00,70.9,64.8,30.04,NW,304,4.0,6.0,81,0.00,,---,0.01,VWS V14.00,2013-01-16 16:01:00,
2013-01-16 11:06:00,71.1,64.6,30.04,SSW,208,3.0,3.0,80,0.00,,---,0.01,VWS V14.00,2013-01-16 16:06:00,
2013-01-16 11:11:00,71.4,64.6,30.04,SSW,193,1.0,2.0,79,0.00,,---,0.01,VWS V14.00,2013-01-16 16:11:00,
2013-01-16 11:16:00,71.7,64.5,30.04,NW,311,0.0,1.0,78,0.00,,---,0.01,VWS V14.00,2013-01-16 16:16:00,
2013-01-16 11:21:00,71.9,64.7,30.03,NW,326,0.0,0.0,78,0.00,,---,0.01,VWS V14.00,2013-01-16 16:21:00,
2013-01-16 11:26:00,72.3,64.7,30.03,WNW,300,2.0,4.0,77,0.00,,---,0.01,VWS V14.00,2013-01-16 16:26:00,
2013-01-16 11:31:00,72.7,65.1,30.03,WSW,242,0.0,1.0,77,0.00,,---,0.01,VWS V14.00,2013-01-16 16:31:00,
2013-01-16 11:36:00,73.0,65.4,30.03,West,269,0.0,2.0,77,0.00,,---,0.01,VWS V14.00,2013-01-16 16:36:00,
2013-01-16 11:41:00,73.4,65.0,30.02,West,259,3.0,4.0,75,0.00,,---,0.01,VWS V14.00,2013-01-16 16:41:00,
2013-01-16 11:46:00,73.8,65.0,30.02,WSW,239,1.0,4.0,74,0.00,,---,0.01,VWS V14.00,2013-01-16 16:46:00,
2013-01-16 11:51:00,74.2,64.6,30.01,SSW,205,1.0,9.0,72,0.00,,---,0.01,VWS V14.00,2013-01-16 16:51:00,
2013-01-16 11:56:00,74.6,65.0,30.01,South,172,0.0,1.0,72,0.00,,---,0.01,VWS V14.00,2013-01-16 16:56:00,
2013-01-16 12:01:00,74.9,65.3,30.01,NW,324,1.0,2.0,72,0.00,,---,0.01,VWS V14.00,2013-01-16 17:01:00,
2013-01-16 12:06:00,75.2,65.2,30.01,NW,315,2.0,2.0,71,0.00,,---,0.01,VWS V14.00,2013-01-16 17:06:00,
2013-01-16 12:11:00,75.6,65.5,30.00,WNW,284,0.0,1.0,71,0.00,,---,0.01,VWS V14.00,2013-01-16 17:11:00,
2013-01-16 12:16:00,75.9,65.4,30.00,North,350,0.0,1.0,70,0.00,,---,0.01,VWS V14.00,2013-01-16 17:16:00,
2013-01-16 12:21:00,76.3,65.0,30.00,WSW,257,1.0,2.0,68,0.00,,---,0.01,VWS V14.00,2013-01-16 17:21:00,
2013-01-16 12:26:00,76.9,65.1,30.00,WSW,255,0.0,1.0,67,0.00,,---,0.01,VWS V14.00,2013-01-16 17:26:00,
2013-01-16 12:31:00,77.1,64.9,30.00,West,263,0.0,1.0,66,0.00,,---,0.01,VWS V14.00,2013-01-16 17:31:00,
2013-01-16 12:36:00,77.5,65.3,29.99,WSW,246,0.0,1.0,66,0.00,,---,0.01,VWS V14.00,2013-01-16 17:36:00,
2013-01-16 12:41:00,77.8,65.1,29.99,SW,220,1.0,2.0,65,0.00,,---,0.01,VWS V14.00,2013-01-16 17:41:00,
2013-01-16 12:46:00,77.5,64.8,29.99,WNW,294,0.0,1.0,65,0.00,,---,0.01,VWS V14.00,2013-01-16 17:46:00,
2013-01-16 12:51:00,77.5,65.3,29.99,SW,214,1.0,2.0,66,0.00,,---,0.01,VWS V14.00,2013-01-16 17:51:00,
2013-01-16 12:56:00,77.5,64.8,29.98,WNW,295,1.0,4.0,65,0.00,,---,0.01,VWS V14.00,2013-01-16 17:56:00,
2013-01-16 13:01:00,77.3,64.6,29.98,NW,313,1.0,2.0,65,0.00,,---,0.01,VWS V14.00,2013-01-16 18:01:00,
2013-01-16 13:06:00,77.4,64.7,29.98,West,260,1.0,2.0,65,0.00,,---,0.01,VWS V14.00,2013-01-16 18:06:00,
2013-01-16 13:11:00,77.3,64.6,29.98,SW,215,1.0,2.0,65,0.00,,---,0.01,VWS V14.00,2013-01-16 18:11:00,
2013-01-16 13:16:00,77.1,64.0,29.98,SSW,208,0.0,1.0,64,0.00,,---,0.01,VWS V14.00,2013-01-16 18:16:00,
2013-01-16 13:21:00,76.8,63.7,29.98,NW,304,2.0,2.0,64,0.00,,---,0.01,VWS V14.00,2013-01-16 18:21:00,
2013-01-16 13:26:00,76.5,64.3,29.97,SW,236,2.0,6.0,66,0.00,,---,0.01,VWS V14.00,2013-01-16 18:26:00,
2013-01-16 13:31:00,76.0,64.3,29.98,WSW,244,0.0,1.0,67,0.00,,---,0.01,VWS V14.00,2013-01-16 18:31:00,
2013-01-16 13:36:00,76.1,64.4,29.98,WSW,242,1.0,3.0,67,0.00,,---,0.01,VWS V14.00,2013-01-16 18:36:00,
2013-01-16 13:41:00,76.4,64.2,29.97,West,281,0.0,1.0,66,0.00,,---,0.01,VWS V14.00,2013-01-16 18:41:00,
2013-01-16 13:46:00,76.4,64.2,29.98,SW,218,0.0,1.0,66,0.00,,---,0.01,VWS V14.00,2013-01-16 18:46:00,
2013-01-16 13:51:00,76.0,63.4,29.97,SW,230,5.0,7.0,65,0.00,,---,0.01,VWS V14.00,2013-01-16 18:51:00,
2013-01-16 13:56:00,75.6,63.5,29.97,WNW,290,1.0,1.0,66,0.00,,---,0.01,VWS V14.00,2013-01-16 18:56:00,
2013-01-16 14:01:00,75.7,64.0,29.98,West,279,1.0,1.0,67,0.00,,---,0.01,VWS V14.00,2013-01-16 19:01:00,
2013-01-16 14:06:00,75.9,64.2,29.97,NW,311,0.0,5.0,67,0.00,,---,0.01,VWS V14.00,2013-01-16 19:06:00,
2013-01-16 14:11:00,76.3,64.6,29.97,NNW,336,1.0,1.0,67,0.00,,---,0.01,VWS V14.00,2013-01-16 19:11:00,
2013-01-16 14:16:00,76.3,64.1,29.97,North,355,1.0,1.0,66,0.00,,---,0.01,VWS V14.00,2013-01-16 19:16:00,
2013-01-16 14:21:00,76.1,64.4,29.97,SSE,153,0.0,1.0,67,0.00,,---,0.01,VWS V14.00,2013-01-16 19:21:00,
2013-01-16 14:26:00,76.1,63.9,29.97,WNW,292,1.0,2.0,66,0.00,,---,0.01,VWS V14.00,2013-01-16 19:26:00,
2013-01-16 14:31:00,75.8,64.1,29.96,SW,227,1.0,3.0,67,0.00,,---,0.01,VWS V14.00,2013-01-16 19:31:00,
2013-01-16 14:36:00,75.7,64.4,29.96,WNW,286,0.0,6.0,68,0.00,,---,0.01,VWS V14.00,2013-01-16 19:36:00,
2013-01-16 14:41:00,75.7,64.0,29.96,West,275,1.0,4.0,67,0.00,,---,0.01,VWS V14.00,2013-01-16 19:41:00,
2013-01-16 14:46:00,75.7,64.0,29.96,West,269,0.0,1.0,67,0.00,,---,0.01,VWS V14.00,2013-01-16 19:46:00,
2013-01-16 14:51:00,75.6,64.3,29.96,WSW,249,1.0,3.0,68,0.00,,---,0.01,VWS V14.00,2013-01-16 19:51:00,
2013-01-16 14:56:00,75.5,64.2,29.96,WNW,282,4.0,7.0,68,0.00,,---,0.01,VWS V14.00,2013-01-16 19:56:00,
2013-01-16 15:01:00,75.5,64.2,29.96,North,5,0.0,2.0,68,0.00,,---,0.01,VWS V14.00,2013-01-16 20:01:00,
2013-01-16 15:06:00,75.4,64.5,29.96,SSW,204,1.0,3.0,69,0.00,,---,0.01,VWS V14.00,2013-01-16 20:06:00,
2013-01-16 15:11:00,75.4,64.5,29.96,WSW,248,0.0,0.0,69,0.00,,---,0.01,VWS V14.00,2013-01-16 20:11:00,
2013-01-16 15:16:00,75.3,64.8,29.96,SW,232,0.0,0.0,70,0.00,,---,0.01,VWS V14.00,2013-01-16 20:16:00,
2013-01-16 15:21:00,75.3,64.8,29.96,West,275,0.0,0.0,70,0.00,,---,0.01,VWS V14.00,2013-01-16 20:21:00,
2013-01-16 15:26:00,75.3,64.8,29.96,SSE,163,0.0,1.0,70,0.00,,---,0.01,VWS V14.00,2013-01-16 20:26:00,
2013-01-16 15:31:00,75.3,64.8,29.96,SSW,196,0.0,1.0,70,0.00,,---,0.01,VWS V14.00,2013-01-16 20:31:00,
2013-01-16 15:36:00,75.2,64.3,29.96,WNW,296,0.0,0.0,69,0.00,,---,0.01,VWS V14.00,2013-01-16 20:36:00,
2013-01-16 15:41:00,75.1,64.2,29.96,SSW,201,0.0,1.0,69,0.00,,---,0.01,VWS V14.00,2013-01-16 20:41:00,
2013-01-16 15:46:00,75.0,64.2,29.95,WSW,248,2.0,3.0,69,0.00,,---,0.01,VWS V14.00,2013-01-16 20:46:00,
2013-01-16 15:51:00,74.9,64.1,29.96,South,180,0.0,0.0,69,0.00,,---,0.01,VWS V14.00,2013-01-16 20:51:00,
2013-01-16 15:56:00,74.8,64.4,29.96,SW,223,0.0,0.0,70,0.00,,---,0.01,VWS V14.00,2013-01-16 20:56:00,
2013-01-16 16:01:00,74.7,64.3,29.96,South,188,0.0,1.0,70,0.00,,---,0.01,VWS V14.00,2013-01-16 21:01:00,
2013-01-16 16:06:00,74.5,64.1,29.96,NW,309,0.0,0.0,70,0.00,,---,0.01,VWS V14.00,2013-01-16 21:06:00,
2013-01-16 16:11:00,74.3,63.9,29.96,SW,232,0.0,1.0,70,0.00,,---,0.01,VWS V14.00,2013-01-16 21:11:00,
2013-01-16 16:16:00,74.2,64.6,29.96,SW,231,0.0,0.0,72,0.00,,---,0.01,VWS V14.00,2013-01-16 21:16:00,
2013-01-16 16:21:00,73.9,64.3,29.97,South,181,0.0,0.0,72,0.00,,---,0.01,VWS V14.00,2013-01-16 21:21:00,
2013-01-16 16:26:00,73.7,64.1,29.96,SW,221,0.0,0.0,72,0.00,,---,0.01,VWS V14.00,2013-01-16 21:26:00,
2013-01-16 16:31:00,73.4,64.2,29.97,SW,217,0.0,0.0,73,0.00,,---,0.01,VWS V14.00,2013-01-16 21:31:00,
2013-01-16 16:36:00,73.2,64.0,29.97,WSW,237,0.0,0.0,73,0.00,,---,0.01,VWS V14.00,2013-01-16 21:36:00,
2013-01-16 16:41:00,73.0,64.2,29.97,WSW,238,0.0,0.0,74,0.00,,---,0.01,VWS V14.00,2013-01-16 21:41:00,
2013-01-16 16:46:00,72.8,64.0,29.97,South,190,0.0,0.0,74,0.00,,---,0.01,VWS V14.00,2013-01-16 21:46:00,
2013-01-16 16:51:00,72.5,63.8,29.97,West,262,0.0,0.0,74,0.00,,---,0.01,VWS V14.00,2013-01-16 21:51:00,
2013-01-16 16:56:00,72.3,63.9,29.97,West,259,0.0,0.0,75,0.00,,---,0.01,VWS V14.00,2013-01-16 21:56:00,
2013-01-16 17:01:00,72.0,63.7,29.97,SSW,195,0.0,0.0,75,0.00,,---,0.01,VWS V14.00,2013-01-16 22:01:00,
2013-01-16 17:06:00,71.8,63.8,29.97,SSW,194,0.0,0.0,76,0.00,,---,0.01,VWS V14.00,2013-01-16 22:06:00,
2013-01-16 17:11:00,71.5,63.5,29.97,SSW,194,0.0,0.0,76,0.00,,---,0.01,VWS V14.00,2013-01-16 22:11:00,
2013-01-16 17:16:00,71.3,63.7,29.97,SSW,206,0.0,0.0,77,0.00,,---,0.01,VWS V14.00,2013-01-16 22:16:00,
2013-01-16 17:21:00,71.0,63.4,29.97,SSW,205,0.0,0.0,77,0.00,,---,0.01,VWS V14.00,2013-01-16 22:21:00,
2013-01-16 17:26:00,70.7,63.1,29.98,SSW,207,0.0,0.0,77,0.00,,---,0.01,VWS V14.00,2013-01-16 22:26:00,
2013-01-16 17:31:00,70.4,63.2,29.98,SSW,207,0.0,0.0,78,0.00,,---,0.01,VWS V14.00,2013-01-16 22:31:00,
2013-01-16 17:36:00,70.1,62.9,29.98,NW,319,0.0,0.0,78,0.00,,---,0.01,VWS V14.00,2013-01-16 22:36:00,
2013-01-16 17:41:00,69.9,63.1,29.98,NW,320,0.0,0.0,79,0.00,,---,0.01,VWS V14.00,2013-01-16 22:41:00,
2013-01-16 17:46:00,69.6,62.8,29.99,NW,319,0.0,0.0,79,0.00,,---,0.01,VWS V14.00,2013-01-16 22:46:00,
2013-01-16 17:51:00,69.3,62.9,29.98,NW,319,0.0,0.0,80,0.00,,---,0.01,VWS V14.00,2013-01-16 22:51:00,
2013-01-16 17:56:00,69.0,62.6,29.98,NW,320,0.0,0.0,80,0.00,,---,0.01,VWS V14.00,2013-01-16 22:56:00,
2013-01-16 18:01:00,68.7,62.6,29.99,NW,319,0.0,0.0,81,0.00,,---,0.01,VWS V14.00,2013-01-16 23:01:00,
2013-01-16 18:06:00,68.4,62.3,29.98,NW,319,0.0,0.0,81,0.00,,---,0.01,VWS V14.00,2013-01-16 23:06:00,
2013-01-16 18:11:00,68.1,62.4,29.98,NW,319,0.0,0.0,82,0.00,,---,0.01,VWS V14.00,2013-01-16 23:11:00,
2013-01-16 18:16:00,67.8,62.1,29.98,NW,320,0.0,0.0,82,0.00,,---,0.01,VWS V14.00,2013-01-16 23:16:00,
2013-01-16 18:21:00,67.5,62.2,29.98,NW,319,0.0,0.0,83,0.00,,---,0.01,VWS V14.00,2013-01-16 23:21:00,
2013-01-16 18:26:00,67.2,61.9,29.98,NW,319,0.0,0.0,83,0.00,,---,0.01,VWS V14.00,2013-01-16 23:26:00,
2013-01-16 18:31:00,67.0,62.0,29.98,NW,319,0.0,0.0,84,0.00,,---,0.01,VWS V14.00,2013-01-16 23:31:00,
2013-01-16 18:36:00,66.7,61.7,29.98,NW,320,0.0,0.0,84,0.00,,---,0.01,VWS V14.00,2013-01-16 23:36:00,
2013-01-16 18:41:00,66.5,61.9,29.98,NW,319,0.0,0.0,85,0.00,,---,0.01,VWS V14.00,2013-01-16 23:41:00,
2013-01-16 18:46:00,66.3,61.7,29.99,NW,319,0.0,0.0,85,0.00,,---,0.01,VWS V14.00,2013-01-16 23:46:00,
2013-01-16 18:51:00,66.0,61.7,29.99,NW,319,0.0,0.0,86,0.00,,---,0.01,VWS V14.00,2013-01-16 23:51:00,
2013-01-16 18:56:00,65.8,61.5,29.99,NW,319,0.0,0.0,86,0.00,,---,0.01,VWS V14.00,2013-01-16 23:56:00,
2013-01-16 19:01:00,65.6,61.3,29.99,NW,319,0.0,0.0,86,0.00,,---,0.01,VWS V14.00,2013-01-17 00:01:00,
2013-01-16 19:06:00,65.4,61.1,29.99,NW,319,0.0,0.0,86,0.00,,---,0.01,VWS V14.00,2013-01-17 00:06:00,
2013-01-16 19:11:00,65.2,61.2,29.99,NW,319,0.0,0.0,87,0.00,,---,0.01,VWS V14.00,2013-01-17 00:11:00,
2013-01-16 19:16:00,65.0,61.0,29.99,NW,319,0.0,0.0,87,0.00,,---,0.01,VWS V14.00,2013-01-17 00:16:00,
2013-01-16 19:21:00,64.9,60.9,29.99,NW,319,0.0,0.0,87,0.00,,---,0.01,VWS V14.00,2013-01-17 00:21:00,
2013-01-16 19:26:00,64.7,60.8,29.99,NW,319,0.0,0.0,87,0.00,,---,0.01,VWS V14.00,2013-01-17 00:26:00,
2013-01-16 19:31:00,64.4,60.8,29.99,NW,320,0.0,0.0,88,0.00,,---,0.01,VWS V14.00,2013-01-17 00:31:00,
2013-01-16 19:36:00,64.2,60.6,29.99,NW,319,0.0,0.0,88,0.00,,---,0.01,VWS V14.00,2013-01-17 00:36:00,
2013-01-16 19:41:00,64.1,60.5,29.99,NW,319,0.0,0.0,88,0.00,,---,0.01,VWS V14.00,2013-01-17 00:41:00,
2013-01-16 19:46:00,63.9,60.3,29.99,NW,319,0.0,0.0,88,0.00,,---,0.01,VWS V14.00,2013-01-17 00:46:00,
2013-01-16 19:51:00,63.7,60.1,30.00,NW,319,0.0,0.0,88,0.00,,---,0.01,VWS V14.00,2013-01-17 00:51:00,
2013-01-16 19:56:00,63.5,59.9,30.00,NW,320,0.0,0.0,88,0.00,,---,0.01,VWS V14.00,2013-01-17 00:56:00,
2013-01-16 20:01:00,63.4,59.8,30.00,NW,320,0.0,0.0,88,0.00,,---,0.01,VWS V14.00,2013-01-17 01:01:00,
2013-01-16 20:06:00,63.2,59.6,30.00,NW,319,0.0,0.0,88,0.00,,---,0.01,VWS V14.00,2013-01-17 01:06:00,
2013-01-16 20:11:00,63.1,59.5,30.00,NW,320,0.0,0.0,88,0.00,,---,0.01,VWS V14.00,2013-01-17 01:11:00,
2013-01-16 20:16:00,62.9,59.3,30.00,NW,319,0.0,0.0,88,0.00,,---,0.01,VWS V14.00,2013-01-17 01:16:00,
2013-01-16 20:21:00,62.8,59.2,30.00,NW,319,0.0,0.0,88,0.00,,---,0.01,VWS V14.00,2013-01-17 01:21:00,
2013-01-16 20:26:00,62.7,59.4,30.00,NW,320,0.0,0.0,89,0.00,,---,0.01,VWS V14.00,2013-01-17 01:26:00,
2013-01-16 20:31:00,62.6,59.3,30.00,NW,319,0.0,0.0,89,0.00,,---,0.01,VWS V14.00,2013-01-17 01:31:00,
2013-01-16 20:36:00,62.5,59.5,30.00,NW,319,0.0,0.0,90,0.00,,---,0.01,VWS V14.00,2013-01-17 01:36:00,
2013-01-16 20:41:00,62.5,59.5,30.00,NW,320,0.0,0.0,90,0.00,,---,0.01,VWS V14.00,2013-01-17 01:41:00,
2013-01-16 20:46:00,62.4,59.4,30.00,NW,320,0.0,0.0,90,0.00,,---,0.01,VWS V14.00,2013-01-17 01:46:00,
2013-01-16 20:51:00,62.3,59.3,30.00,NW,320,0.0,0.0,90,0.00,,---,0.01,VWS V14.00,2013-01-17 01:51:00,
2013-01-16 20:56:00,62.2,59.5,30.00,NW,320,0.0,0.0,91,0.00,,---,0.01,VWS V14.00,2013-01-17 01:56:00,
2013-01-16 21:01:00,62.2,59.5,30.00,NW,319,0.0,0.0,91,0.00,,---,0.01,VWS V14.00,2013-01-17 02:01:00,
2013-01-16 21:06:00,62.2,59.5,30.00,NW,319,0.0,0.0,91,0.00,,---,0.01,VWS V14.00,2013-01-17 02:06:00,
2013-01-16 21:11:00,62.1,59.8,30.00,NW,320,0.0,0.0,92,0.00,,---,0.01,VWS V14.00,2013-01-17 02:11:00,
2013-01-16 21:16:00,62.1,59.8,30.00,NW,320,0.0,0.0,92,0.00,,---,0.01,VWS V14.00,2013-01-17 02:16:00,
2013-01-16 21:21:00,62.2,59.8,30.00,NW,320,0.0,0.0,92,0.00,,---,0.01,VWS V14.00,2013-01-17 02:21:00,
2013-01-16 21:26:00,62.2,60.2,30.00,NW,319,0.0,0.0,93,0.00,,---,0.01,VWS V14.00,2013-01-17 02:26:00,
2013-01-16 21:31:00,62.3,60.2,29.99,NW,319,0.0,0.0,93,0.00,,---,0.01,VWS V14.00,2013-01-17 02:31:00,
2013-01-16 21:36:00,62.3,60.2,29.99,NW,319,0.0,0.0,93,0.00,,---,0.01,VWS V14.00,2013-01-17 02:36:00,
2013-01-16 21:41:00,62.3,60.6,29.99,NW,320,0.0,0.0,94,0.00,,---,0.01,VWS V14.00,2013-01-17 02:41:00,
2013-01-16 21:46:00,62.4,60.7,29.99,NW,319,0.0,0.0,94,0.00,,---,0.01,VWS V14.00,2013-01-17 02:46:00,
2013-01-16 21:51:00,62.5,60.8,29.99,WSW,240,0.0,0.0,94,0.00,,---,0.01,VWS V14.00,2013-01-17 02:51:00,
2013-01-16 21:56:00,62.6,60.8,29.99,WSW,240,0.0,0.0,94,0.00,,---,0.01,VWS V14.00,2013-01-17 02:56:00,
2013-01-16 22:01:00,62.6,60.8,29.99,WSW,240,0.0,0.0,94,0.00,,---,0.01,VWS V14.00,2013-01-17 03:01:00,
2013-01-16 22:06:00,62.6,60.8,29.99,WSW,240,0.0,0.0,94,0.00,,---,0.01,VWS V14.00,2013-01-17 03:06:00,
2013-01-16 22:11:00,62.7,61.2,29.99,WSW,239,0.0,0.0,95,0.00,,---,0.01,VWS V14.00,2013-01-17 03:11:00,
2013-01-16 22:16:00,62.8,61.3,29.98,WSW,239,0.0,0.0,95,0.00,,---,0.01,VWS V14.00,2013-01-17 03:16:00,
2013-01-16 22:21:00,62.9,61.5,29.99,WSW,239,0.0,0.0,95,0.00,,---,0.01,VWS V14.00,2013-01-17 03:21:00,
2013-01-16 22:26:00,62.9,61.5,29.98,WSW,239,0.0,2.0,95,0.00,,---,0.01,VWS V14.00,2013-01-17 03:26:00,
2013-01-16 22:31:00,62.9,61.5,29.98,WSW,239,0.0,0.0,95,0.00,,---,0.01,VWS V14.00,2013-01-17 03:31:00,
2013-01-16 22:36:00,63.0,61.5,29.98,WSW,239,0.0,0.0,95,0.00,,---,0.01,VWS V14.00,2013-01-17 03:36:00,
2013-01-16 22:41:00,63.0,61.5,29.98,WSW,239,0.0,0.0,95,0.00,,---,0.01,VWS V14.00,2013-01-17 03:41:00,
2013-01-16 22:46:00,63.0,61.5,29.98,WSW,239,0.0,0.0,95,0.00,,---,0.01,VWS V14.00,2013-01-17 03:46:00,
2013-01-16 22:51:00,63.0,61.5,29.98,WSW,239,0.0,0.0,95,0.00,,---,0.01,VWS V14.00,2013-01-17 03:51:00,
2013-01-16 22:56:00,63.0,61.8,29.98,WSW,239,0.0,0.0,96,0.00,,---,0.01,VWS V14.00,2013-01-17 03:56:00,
2013-01-16 23:01:00,63.0,61.8,29.98,WSW,239,0.0,0.0,96,0.00,,---,0.01,VWS V14.00,2013-01-17 04:01:00,
2013-01-16 23:06:00,63.0,61.8,29.98,WSW,239,0.0,0.0,96,0.00,,---,0.01,VWS V14.00,2013-01-17 04:06:00,
2013-01-16 23:11:00,63.0,61.8,29.97,WSW,240,0.0,0.0,96,0.00,,---,0.01,VWS V14.00,2013-01-17 04:11:00,
2013-01-16 23:16:00,63.0,61.8,29.97,WSW,240,0.0,0.0,96,0.00,,---,0.01,VWS V14.00,2013-01-17 04:16:00,
2013-01-16 23:21:00,63.0,61.8,29.98,WSW,240,0.0,0.0,96,0.00,,---,0.01,VWS V14.00,2013-01-17 04:21:00,
2013-01-16 23:26:00,63.0,61.8,29.98,NW,326,0.0,0.0,96,0.00,,---,0.01,VWS V14.00,2013-01-17 04:26:00,
2013-01-16 23:31:00,63.0,61.8,29.98,NW,326,0.0,0.0,96,0.00,,---,0.01,VWS V14.00,2013-01-17 04:31:00,
2013-01-16 23:36:00,63.0,61.8,29.98,NW,326,0.0,0.0,96,0.00,,---,0.01,VWS V14.00,2013-01-17 04:36:00,
2013-01-16 23:41:00,63.1,61.9,29.97,NW,326,0.0,0.0,96,0.00,,---,0.01,VWS V14.00,2013-01-17 04:41:00,
2013-01-16 23:46:00,63.1,61.9,29.97,NW,326,0.0,0.0,96,0.00,,---,0.01,VWS V14.00,2013-01-17 04:46:00,
2013-01-16 23:51:00,63.1,61.9,29.98,NW,326,0.0,0.0,96,0.00,,---,0.01,VWS V14.00,2013-01-17 04:51:00,
2013-01-16 23:56:00,63.1,61.7,29.98,NW,326,0.0,0.0,95,0.00,,---,0.00,VWS V14.00,2013-01-17 04:56:00,